Time;durP1;ratioP1;P1;durP2;ratioP2;P2;SDS_P1;SDS_P2;PMS_P1;PMS_P2;Temp;Humidity;BMP_temperature;BMP_pressure;BME280_temperature;BME280_humidity;BME280_pressure;Samples;Min_cycle;Max_cycle;Signal;HPM_P1;HPM_P2
2022/08/05 00:00:20;;;;;;;25.13;20.92;;;;;;;23.24;65.93;100142.53;4908712;29;20032;-61
2022/08/05 00:02:46;;;;;;;26.98;20.15;;;;;;;23.24;65.83;100145.16;4909059;29;20055;-61
2022/08/05 00:05:12;;;;;;;23.50;20.13;;;;;;;23.23;65.88;100147.88;4909352;29;20055;-60
2022/08/05 00:07:38;;;;;;;24.85;21.15;;;;;;;23.20;65.50;100145.44;4909267;29;20320;-60
2022/08/05 00:10:04;;;;;;;26.58;20.02;;;;;;;23.16;65.57;100147.47;4908826;29;20032;-61
2022/08/05 00:12:30;;;;;;;24.67;21.15;;;;;;;23.18;65.50;100148.19;4909200;29;20032;-60
2022/08/05 00:14:55;;;;;;;22.52;19.95;;;;;;;23.17;65.67;100143.84;4909263;29;20084;-61
2022/08/05 00:17:21;;;;;;;23.67;19.88;;;;;;;23.16;65.65;100143.97;4908326;29;20193;-60
2022/08/05 00:19:47;;;;;;;24.52;20.02;;;;;;;23.08;65.60;100145.28;4908989;29;20047;-60
2022/08/05 00:22:12;;;;;;;29.05;21.30;;;;;;;23.08;65.66;100150.56;4900892;29;20187;-60
2022/08/05 00:24:39;;;;;;;25.90;19.70;;;;;;;23.08;65.35;100147.09;4896935;29;20024;-61
2022/08/05 00:27:04;;;;;;;24.45;20.67;;;;;;;23.08;66.01;100155.00;4907761;29;20253;-61
2022/08/05 00:29:30;;;;;;;22.60;19.52;;;;;;;23.08;65.84;100145.28;4908839;29;20024;-61
2022/08/05 00:31:56;;;;;;;24.90;19.65;;;;;;;23.07;66.19;100145.38;4908697;29;20028;-61
2022/08/05 00:34:22;;;;;;;25.40;20.83;;;;;;;23.07;66.21;100148.03;4907952;29;20028;-61
2022/08/05 00:36:48;;;;;;;25.33;20.17;;;;;;;23.03;66.32;100143.91;4908221;29;20220;-61
2022/08/05 00:39:14;;;;;;;23.27;20.30;;;;;;;22.96;66.57;100140.84;4908503;29;20052;-61
2022/08/05 00:41:44;;;;;;;25.40;19.90;;;;;;;22.78;66.63;100107.72;4908606;29;20033;-61
2022/08/05 00:44:10;;;;;;;25.83;20.55;;;;;;;22.92;66.75;100134.06;4908816;29;20321;-60
2022/08/05 00:46:36;;;;;;;23.52;19.92;;;;;;;22.96;66.39;100135.56;4915557;29;20031;-61
2022/08/05 00:49:01;;;;;;;28.10;21.48;;;;;;;22.90;66.41;100143.84;4916339;29;20351;-61
2022/08/05 00:51:27;;;;;;;30.98;19.92;;;;;;;22.92;66.20;100144.63;4911805;29;20035;-61
2022/08/05 00:53:53;;;;;;;24.15;20.83;;;;;;;22.91;66.28;100135.84;4908342;29;20034;-61
2022/08/05 00:56:18;;;;;;;23.52;19.95;;;;;;;22.87;66.22;100142.28;4927168;29;20054;-61
2022/08/05 00:58:44;;;;;;;23.80;20.08;;;;;;;22.85;66.60;100143.34;4894223;29;20044;-61
2022/08/05 01:01:12;;;;;;;21.63;19.42;;;;;;;22.85;66.58;100144.16;4907150;29;20021;-61
2022/08/05 01:03:38;;;;;;;23.15;19.60;;;;;;;22.72;66.66;100133.56;4908335;29;20071;-61
2022/08/05 01:06:05;;;;;;;25.58;20.63;;;;;;;22.83;66.41;100139.94;4908182;29;20357;-62
2022/08/05 01:08:32;;;;;;;25.95;21.35;;;;;;;22.81;66.54;100141.84;4908430;29;20052;-61
2022/08/05 01:11:03;;;;;;;26.80;20.95;;;;;;;22.51;67.10;100103.28;4908235;29;20024;-61
2022/08/05 01:13:38;;;;;;;23.85;20.17;;;;;;;22.71;67.42;100138.94;4898937;29;20039;-61
2022/08/05 01:16:10;;;;;;;23.05;20.55;;;;;;;22.70;67.06;100145.16;4888396;29;20037;-61
2022/08/05 01:18:41;;;;;;;26.08;21.08;;;;;;;22.68;67.28;100149.72;4896674;29;20268;-61
2022/08/05 01:21:11;;;;;;;22.75;20.40;;;;;;;22.63;67.24;100143.88;4911269;29;20036;-61
2022/08/05 01:23:53;;;;;;;25.83;20.80;;;;;;;22.62;67.38;100152.72;4907090;29;20053;-61
2022/08/05 01:26:53;;;;;;;25.48;19.17;;;;;;;22.38;67.70;100109.34;4908050;29;20044;-61
2022/08/05 01:29:30;;;;;;;21.95;19.58;;;;;;;22.56;67.44;100138.13;4911505;29;20039;-61
2022/08/05 01:32:01;;;;;;;24.60;21.17;;;;;;;22.51;67.30;100132.31;4916688;29;20055;-61
2022/08/05 01:34:32;;;;;;;23.37;20.87;;;;;;;22.61;67.52;100145.78;4913486;29;20032;-61
2022/08/05 01:37:05;;;;;;;23.42;20.77;;;;;;;22.31;67.28;100096.59;4907650;29;20470;-61
2022/08/05 01:39:33;;;;;;;26.20;20.80;;;;;;;22.59;67.49;100143.22;4914022;29;20339;-61
2022/08/05 01:42:00;;;;;;;23.55;20.90;;;;;;;22.58;67.35;100139.72;4911023;29;20198;-62
2022/08/05 01:44:27;;;;;;;25.92;20.70;;;;;;;22.59;67.26;100143.22;4917815;29;20032;-61
2022/08/05 01:46:54;;;;;;;23.55;20.38;;;;;;;22.63;67.38;100144.72;4898386;29;20119;-62
2022/08/05 01:49:22;;;;;;;27.98;22.20;;;;;;;22.42;67.50;100117.91;4907173;29;20116;-61
2022/08/05 01:51:50;;;;;;;24.58;21.00;;;;;;;22.37;67.54;100112.06;4906616;29;20028;-61
2022/08/05 01:54:19;;;;;;;23.35;20.90;;;;;;;22.33;67.44;100103.53;4910513;29;20063;-62
2022/08/05 01:56:47;;;;;;;25.42;21.45;;;;;;;22.56;67.00;100133.72;4926131;29;20031;-61
2022/08/05 01:59:18;;;;;;;25.27;22.33;;;;;;;22.51;67.10;100148.16;4907566;29;20055;-61
2022/08/05 02:01:48;;;;;;;23.17;20.77;;;;;;;22.46;67.61;100150.22;4907839;29;20487;-61
2022/08/05 02:04:17;;;;;;;24.88;20.98;;;;;;;22.50;67.65;100149.94;4906525;29;20035;-62
2022/08/05 02:06:43;;;;;;;24.75;19.80;;;;;;;22.54;67.69;100142.66;4907718;29;20028;-61
2022/08/05 02:09:08;;;;;;;24.02;20.83;;;;;;;22.51;67.74;100138.44;4907714;29;20032;-62
2022/08/05 02:12:04;;;;;;;23.52;21.00;;;;;;;22.52;67.53;100137.50;4907926;29;20024;-61
2022/08/05 02:14:36;;;;;;;24.75;21.10;;;;;;;22.52;67.58;100134.84;4907841;29;20250;-62
2022/08/05 02:17:07;;;;;;;;;;;;;;;22.49;67.59;100142.97;4889445;29;20029;-62
2022/08/05 02:19:36;;;;;;;25.27;22.02;;;;;;;22.42;67.39;100133.75;4902050;29;19911;-61
2022/08/05 02:22:12;;;;;;;24.52;21.38;;;;;;;22.50;67.14;100143.81;4906915;29;20093;-61
2022/08/05 02:24:43;;;;;;;24.92;21.42;;;;;;;22.49;68.24;100164.09;4901740;29;20344;-61
2022/08/05 02:27:11;;;;;;;27.20;22.37;;;;;;;22.50;67.80;100154.38;4910092;29;20321;-61
2022/08/05 02:29:42;;;;;;;24.35;20.95;;;;;;;22.41;68.04;100137.31;4910715;29;20036;-61
2022/08/05 02:32:10;;;;;;;24.17;20.25;;;;;;;22.38;68.31;100140.16;4912462;29;20217;-62
2022/08/05 02:34:36;;;;;;;25.33;22.13;;;;;;;22.52;68.16;100165.69;4910835;29;20329;-61
2022/08/05 02:37:06;;;;;;;26.45;21.50;;;;;;;22.23;68.00;100115.53;4910642;29;20063;-61
2022/08/05 02:39:37;;;;;;;26.60;22.40;;;;;;;22.48;67.83;100161.53;4910525;29;20040;-61
2022/08/05 02:42:04;;;;;;;25.35;22.10;;;;;;;22.52;67.96;100161.25;4910706;29;20044;-61
2022/08/05 02:44:31;;;;;;;24.70;22.15;;;;;;;22.48;68.26;100165.03;4910802;29;20200;-61
2022/08/05 02:46:58;;;;;;;28.10;24.23;;;;;;;22.47;68.14;100170.41;4925707;29;20067;-61
2022/08/05 02:49:27;;;;;;;30.27;25.85;;;;;;;22.08;68.59;100133.19;4916304;29;20104;-61
2022/08/05 02:51:54;;;;;;;28.88;24.85;;;;;;;22.39;68.34;100168.25;4910345;29;20035;-61
2022/08/05 02:54:21;;;;;;;27.55;22.80;;;;;;;22.48;68.19;100172.94;4916295;29;20019;-61
2022/08/05 02:56:47;;;;;;;27.67;23.85;;;;;;;22.47;68.24;100176.53;4915411;29;20054;-61
2022/08/05 02:59:17;;;;;;;31.85;25.90;;;;;;;22.48;67.76;100172.09;4917022;29;20063;-61
2022/08/05 03:01:44;;;;;;;25.08;22.25;;;;;;;22.44;69.40;100184.63;4912908;29;20244;-61
2022/08/05 03:04:13;;;;;;;32.50;24.65;;;;;;;22.45;68.81;100188.97;4909991;29;20339;-61
2022/08/05 03:06:41;;;;;;;30.33;25.63;;;;;;;22.45;68.67;100194.25;4910280;29;20305;-61
2022/08/05 03:09:10;;;;;;;37.35;28.98;;;;;;;22.38;68.62;100183.22;4910200;29;20033;-61
2022/08/05 03:11:36;;;;;;;32.08;25.23;;;;;;;22.43;68.48;100190.00;4909090;29;20071;-61
2022/08/05 03:14:01;;;;;;;38.40;25.85;;;;;;;22.41;68.48;100177.75;4910221;29;20036;-61
2022/08/05 03:16:27;;;;;;;29.67;25.20;;;;;;;22.53;68.37;100191.13;4897278;29;20032;-61
2022/08/05 03:18:53;;;;;;;33.15;26.02;;;;;;;22.50;68.76;100186.91;4914584;29;20040;-61
2022/08/05 03:21:18;;;;;;;33.63;26.27;;;;;;;22.53;68.22;100197.28;4909915;29;20314;-60
2022/08/05 03:23:44;;;;;;;33.38;27.10;;;;;;;22.42;68.90;100194.47;4909088;29;20036;-61
2022/08/05 03:26:10;;;;;;;32.08;26.75;;;;;;;22.47;68.65;100195.00;4908820;29;20025;-61
2022/08/05 03:28:36;;;;;;;35.85;27.45;;;;;;;22.45;68.81;100201.34;4909983;29;20036;-61
2022/08/05 03:31:03;;;;;;;31.55;26.83;;;;;;;22.34;69.31;100197.56;4924705;29;20033;-61
2022/08/05 03:33:30;;;;;;;31.45;25.27;;;;;;;22.36;69.08;100194.81;4909845;29;20104;-61
2022/08/05 03:35:57;;;;;;;37.88;26.63;;;;;;;22.42;69.10;100202.38;4909682;29;20033;-61
2022/08/05 03:38:24;;;;;;;35.20;28.05;;;;;;;22.27;69.44;100204.13;4909798;29;20028;-61
2022/08/05 03:40:52;;;;;;;36.35;26.65;;;;;;;22.26;69.44;100199.81;4924384;29;20038;-60
2022/08/05 03:43:19;;;;;;;32.45;26.60;;;;;;;22.29;69.54;100209.31;4909860;29;20021;-60
2022/08/05 03:45:45;;;;;;;40.80;26.90;;;;;;;22.28;69.63;100202.38;4915164;29;20330;-59
2022/08/05 03:48:11;;;;;;;38.40;26.67;;;;;;;22.38;69.35;100206.16;4925548;29;20044;-60
2022/08/05 03:50:39;;;;;;;34.10;25.05;;;;;;;22.42;69.63;100210.28;4909540;29;20048;-60
2022/08/05 03:53:11;;;;;;;35.50;25.35;;;;;;;22.26;69.02;100170.78;4909529;29;20330;-61
2022/08/05 03:55:43;;;;;;;35.08;25.90;;;;;;;22.21;69.05;100176.34;4922634;29;20048;-60
2022/08/05 03:58:14;;;;;;;35.47;25.92;;;;;;;22.13;69.64;100173.31;4917742;29;20096;-60
2022/08/05 04:00:42;;;;;;;36.58;26.15;;;;;;;22.43;69.86;100221.69;4908058;29;20095;-61
2022/08/05 04:03:10;;;;;;;35.88;25.52;;;;;;;22.52;69.54;100227.25;4909173;29;20043;-60
2022/08/05 04:05:38;;;;;;;34.33;25.48;;;;;;;22.44;69.40;100218.94;4908765;29;20036;-61
2022/08/05 04:08:08;;;;;;;31.33;24.77;;;;;;;22.47;68.59;100192.34;4909222;29;20047;-60
2022/08/05 04:10:34;;;;;;;39.45;26.50;;;;;;;22.64;68.43;100224.78;4908984;29;20076;-62
2022/08/05 04:13:00;;;;;;;36.55;27.05;;;;;;;22.43;69.35;100222.53;4909133;29;20099;-60
2022/08/05 04:15:26;;;;;;;36.10;24.95;;;;;;;22.65;68.86;100226.47;4909237;29;20234;-60
2022/08/05 04:17:53;;;;;;;35.20;25.88;;;;;;;22.30;69.33;100221.56;4908975;29;20054;-60
2022/08/05 04:20:23;;;;;;;39.65;27.33;;;;;;;22.41;69.83;100227.91;4908925;29;20241;-60
2022/08/05 04:22:49;;;;;;;32.42;25.25;;;;;;;22.46;69.25;100219.72;4909048;29;20335;-60
2022/08/05 04:25:14;;;;;;;38.30;26.95;;;;;;;22.62;69.36;100232.81;4908964;29;20036;-60
2022/08/05 04:27:41;;;;;;;40.20;27.15;;;;;;;22.71;68.79;100231.38;4908873;29;20047;-60
2022/08/05 04:30:08;;;;;;;34.28;26.02;;;;;;;22.72;68.76;100235.72;4908812;29;20033;-60
2022/08/05 04:32:34;;;;;;;34.67;25.60;;;;;;;22.81;68.65;100245.69;4909130;29;20024;-60
2022/08/05 04:34:59;;;;;;;31.05;24.48;;;;;;;22.88;68.59;100239.06;4908660;29;20068;-59
2022/08/05 04:37:25;;;;;;;35.05;23.55;;;;;;;22.99;68.26;100233.09;4909097;29;20055;-61
2022/08/05 04:39:51;;;;;;;33.03;23.58;;;;;;;23.08;68.14;100236.94;4908389;29;20221;-60
2022/08/05 04:42:17;;;;;;;34.53;24.25;;;;;;;23.00;68.08;100237.44;4908308;29;20071;-60
2022/08/05 04:44:42;;;;;;;33.15;24.55;;;;;;;23.02;68.27;100232.06;4923241;29;20087;-60
2022/08/05 04:47:08;;;;;;;27.85;21.33;;;;;;;23.18;67.90;100231.94;4924444;29;20333;-60
2022/08/05 04:49:33;;;;;;;30.50;23.55;;;;;;;23.13;67.51;100226.94;4914062;29;20065;-60
2022/08/05 04:51:59;;;;;;;30.55;23.10;;;;;;;23.12;67.63;100227.88;4908427;29;20325;-60
2022/08/05 04:54:26;;;;;;;28.33;21.48;;;;;;;23.01;67.27;100199.47;4908438;29;20024;-60
2022/08/05 04:56:54;;;;;;;30.95;22.33;;;;;;;;;;4908231;29;20306;-60
2022/08/05 04:59:21;;;;;;;30.65;23.83;;;;;;;23.18;67.67;100238.06;4889741;29;20032;-60
2022/08/05 05:01:53;;;;;;;31.75;23.15;;;;;;;23.07;67.78;100230.81;4904379;29;20214;-60
2022/08/05 05:04:19;;;;;;;29.33;23.02;;;;;;;23.18;67.53;100227.47;4907607;29;20284;-60
2022/08/05 05:06:44;;;;;;;30.20;21.23;;;;;;;23.33;67.10;100232.69;4908283;29;20317;-61
2022/08/05 05:09:11;;;;;;;28.55;22.30;;;;;;;23.24;66.85;100235.03;4907095;29;20198;-61
2022/08/05 05:11:37;;;;;;;28.45;21.75;;;;;;;23.30;66.97;100238.19;4908108;29;20038;-60
2022/08/05 05:14:02;;;;;;;28.60;22.50;;;;;;;23.28;67.38;100240.94;4908036;29;20055;-61
2022/08/05 05:16:28;;;;;;;27.15;20.02;;;;;;;23.48;66.81;100244.06;4908197;29;20071;-60
2022/08/05 05:18:54;;;;;;;26.20;23.35;;;;;;;23.34;66.45;100234.41;4908348;29;20209;-60
2022/08/05 05:21:20;;;;;;;30.67;21.98;;;;;;;23.39;66.79;100232.31;4908127;29;20024;-60
2022/08/05 05:23:45;;;;;;;26.13;20.88;;;;;;;23.43;66.14;100239.09;4908193;29;20068;-60
2022/08/05 05:26:11;;;;;;;24.60;20.73;;;;;;;23.40;66.19;100234.84;4908010;29;20210;-60
2022/08/05 05:28:36;;;;;;;28.92;20.77;;;;;;;23.56;65.88;100239.13;4908062;29;20076;-60
2022/08/05 05:31:02;;;;;;;26.23;20.27;;;;;;;23.53;66.10;100239.31;4908056;29;20036;-60
2022/08/05 05:33:28;;;;;;;27.25;20.27;;;;;;;23.72;66.03;100242.41;4906812;29;20250;-60
2022/08/05 05:35:53;;;;;;;23.25;19.42;;;;;;;23.88;65.26;100242.25;4908026;29;20024;-61
2022/08/05 05:38:19;;;;;;;24.45;20.48;;;;;;;23.98;65.09;100252.22;4907790;29;20024;-60
2022/08/05 05:40:44;;;;;;;24.60;19.20;;;;;;;24.07;65.14;100247.13;4908019;29;20352;-60
2022/08/05 05:43:10;;;;;;;26.60;20.13;;;;;;;24.25;64.72;100246.81;4907930;29;20213;-60
2022/08/05 05:45:36;;;;;;;25.23;19.23;;;;;;;24.29;65.12;100245.66;4912248;29;20028;-60
2022/08/05 05:48:03;;;;;;;21.15;16.92;;;;;;;24.40;63.26;100243.09;4925765;29;20219;-60
2022/08/05 05:50:29;;;;;;;25.02;18.25;;;;;;;24.61;63.34;100248.72;4907936;29;20040;-60
2022/08/05 05:52:54;;;;;;;24.40;18.35;;;;;;;24.81;61.92;100264.94;4907801;29;20028;-61
2022/08/05 05:55:20;;;;;;;19.05;17.13;;;;;;;24.90;61.88;100247.56;4906818;29;20029;-61
2022/08/05 05:57:46;;;;;;;23.50;17.70;;;;;;;25.01;61.86;100252.06;4907628;29;20271;-60
2022/08/05 06:00:16;;;;;;;19.80;17.42;;;;;;;25.08;61.75;100245.34;4910565;29;20052;-61
2022/08/05 06:02:42;;;;;;;24.30;17.17;;;;;;;25.09;61.94;100253.19;4911628;29;20340;-61
2022/08/05 06:05:10;;;;;;;23.90;17.10;;;;;;;25.27;61.69;100244.88;4910775;29;20031;-60
2022/08/05 06:07:36;;;;;;;20.95;15.88;;;;;;;25.48;60.65;100253.03;4911376;29;20320;-60
2022/08/05 06:10:06;;;;;;;24.05;17.75;;;;;;;25.59;60.40;100255.72;4910161;29;20048;-61
2022/08/05 06:12:33;;;;;;;21.13;16.58;;;;;;;25.66;59.43;100256.13;4911201;29;20385;-60
2022/08/05 06:15:00;;;;;;;22.35;16.63;;;;;;;25.48;60.40;100258.34;4910015;29;20415;-61
2022/08/05 06:17:26;;;;;;;27.38;18.77;;;;;;;25.45;60.54;100256.78;4892424;29;20096;-61
2022/08/05 06:19:52;;;;;;;24.25;17.58;;;;;;;25.58;59.46;100247.88;4907430;29;20217;-60
2022/08/05 06:22:29;;;;;;;21.10;15.02;;;;;;;25.55;59.93;100216.28;4910463;29;20052;-60
2022/08/05 06:24:56;;;;;;;21.05;15.00;;;;;;;25.74;58.08;100247.56;4911196;29;20038;-60
2022/08/05 06:27:22;;;;;;;22.77;15.88;;;;;;;25.76;57.33;100254.44;4911104;29;20080;-60
2022/08/05 06:29:47;;;;;;;17.08;14.65;;;;;;;25.77;57.37;100260.63;4911134;29;20048;-60
2022/08/05 06:32:13;;;;;;;21.45;14.45;;;;;;;25.89;57.20;100262.31;4910946;29;20024;-60
2022/08/05 06:34:39;;;;;;;19.05;14.45;;;;;;;25.81;56.50;100256.75;4910958;29;20020;-60
2022/08/05 06:37:05;;;;;;;19.45;14.05;;;;;;;25.96;56.80;100258.22;4910949;29;20036;-60
2022/08/05 06:39:31;;;;;;;20.95;13.85;;;;;;;26.15;57.67;100262.16;4910478;29;20028;-60
2022/08/05 06:42:02;;;;;;;23.48;14.90;;;;;;;26.05;57.79;100256.69;4910745;29;20335;-60
2022/08/05 06:44:28;;;;;;;17.30;14.30;;;;;;;26.19;56.59;100247.66;4891753;29;20029;-60
2022/08/05 06:46:55;;;;;;;20.25;13.45;;;;;;;26.35;57.81;100257.94;4918342;29;20280;-60
2022/08/05 06:49:21;;;;;;;15.43;11.95;;;;;;;26.36;54.76;100259.63;4911025;29;20059;-60
2022/08/05 06:51:46;;;;;;;17.02;13.23;;;;;;;26.42;54.99;100263.63;4910575;29;20039;-60
2022/08/05 06:54:12;;;;;;;14.77;12.40;;;;;;;26.52;55.71;100256.59;4910985;29;20309;-59
2022/08/05 06:56:37;;;;;;;23.38;14.23;;;;;;;26.58;54.37;100253.47;4910523;29;20043;-61
2022/08/05 06:59:04;;;;;;;17.55;13.13;;;;;;;26.62;54.54;100259.38;4910321;29;20024;-60
2022/08/05 07:01:30;;;;;;;20.42;13.43;;;;;;;26.61;53.42;100257.69;4910450;29;20043;-60
2022/08/05 07:03:56;;;;;;;19.27;13.20;;;;;;;26.73;53.91;100262.06;4910363;29;20328;-60
2022/08/05 07:06:22;;;;;;;18.75;12.45;;;;;;;26.82;53.42;100261.31;4909822;29;20321;-60
2022/08/05 07:08:48;;;;;;;12.57;11.38;;;;;;;27.07;53.76;100269.13;4910436;29;20035;-60
2022/08/05 07:11:13;;;;;;;12.75;10.80;;;;;;;26.97;52.26;100253.06;4909785;29;20050;-60
2022/08/05 07:19:07;;;;;;;18.65;10.60;;;;;;;27.28;50.62;100267.38;4908642;29;20041;-60
2022/08/05 07:21:33;;;;;;;12.52;9.43;;;;;;;27.40;51.13;100264.69;4910199;29;20385;-60
2022/08/05 07:23:59;;;;;;;18.58;10.50;;;;;;;27.43;51.60;100259.09;4909546;29;20044;-60
2022/08/05 07:26:24;;;;;;;13.32;9.35;;;;;;;27.59;50.18;100266.66;4908190;29;20032;-59
2022/08/05 07:28:50;;;;;;;11.32;9.77;;;;;;;27.55;50.35;100266.06;4909912;29;20028;-60
2022/08/05 07:31:16;;;;;;;14.02;8.70;;;;;;;27.53;48.13;100268.00;4909744;29;20024;-60
2022/08/05 07:33:42;;;;;;;13.90;8.40;;;;;;;27.67;49.00;100277.50;4909001;29;20404;-61
2022/08/05 07:36:09;;;;;;;15.13;8.50;;;;;;;27.76;47.76;100259.91;4908758;29;20309;-60
2022/08/05 07:38:36;;;;;;;12.75;8.98;;;;;;;27.51;47.93;100230.06;4905321;29;20091;-60
2022/08/05 07:41:07;;;;;;;11.20;7.80;;;;;;;27.40;47.28;100225.63;4909661;29;20025;-60
2022/08/05 07:43:33;;;;;;;10.88;8.02;;;;;;;27.65;47.44;100264.31;4909493;29;20225;-61
2022/08/05 07:45:58;;;;;;;15.98;8.25;;;;;;;27.81;47.50;100260.38;4909610;29;20033;-60
2022/08/05 07:48:24;;;;;;;13.75;8.18;;;;;;;27.94;47.84;100257.50;4909718;29;20355;-60
2022/08/05 07:50:50;;;;;;;11.68;8.30;;;;;;;27.84;46.50;100260.09;4908357;29;20032;-60
2022/08/05 07:53:16;;;;;;;11.82;9.05;;;;;;;27.90;46.21;100257.78;4909480;29;20103;-61
2022/08/05 07:55:41;;;;;;;14.32;8.02;;;;;;;27.93;47.13;100240.66;4909021;29;20099;-61
2022/08/05 07:58:07;;;;;;;9.80;7.57;;;;;;;27.87;45.71;100257.19;4908258;29;20033;-62
2022/08/05 08:00:33;;;;;;;11.57;8.38;;;;;;;28.03;47.18;100246.94;4909382;29;20056;-61
2022/08/05 08:02:58;;;;;;;13.70;8.30;;;;;;;27.98;45.52;100249.16;4909102;29;20048;-61
2022/08/05 08:05:26;;;;;;;9.82;7.85;;;;;;;28.07;46.55;100231.53;4909274;29;20028;-61
2022/08/05 08:07:52;;;;;;;9.57;7.72;;;;;;;28.12;45.15;100244.44;4909244;29;20020;-61
2022/08/05 08:10:17;;;;;;;13.60;7.80;;;;;;;28.22;46.15;100248.00;4909228;29;20025;-61
2022/08/05 08:12:43;;;;;;;9.88;7.32;;;;;;;28.24;46.49;100248.72;4908313;29;20051;-61
2022/08/05 08:15:10;;;;;;;11.85;8.25;;;;;;;28.14;46.66;100208.72;4908771;29;20043;-61
2022/08/05 08:17:35;;;;;;;13.00;7.60;;;;;;;28.33;44.92;100250.59;4909141;29;20260;-61
2022/08/05 08:20:05;;;;;;;8.50;7.68;;;;;;;28.26;44.25;100241.41;4908846;29;20052;-61
2022/08/05 08:22:31;;;;;;;8.38;6.82;;;;;;;28.30;43.65;100242.00;4908181;29;20099;-61
2022/08/05 08:24:56;;;;;;;10.38;6.82;;;;;;;28.45;43.80;100247.78;4908886;29;20100;-61
2022/08/05 08:27:22;;;;;;;10.35;7.18;;;;;;;28.61;44.21;100249.97;4908950;29;20308;-61
2022/08/05 08:29:48;;;;;;;9.68;7.35;;;;;;;28.66;43.85;100248.63;4923180;29;20028;-62
2022/08/05 08:32:13;;;;;;;8.50;6.63;;;;;;;28.67;42.96;100250.28;4908662;29;20475;-61
2022/08/05 08:34:39;;;;;;;10.32;7.13;;;;;;;28.64;42.89;100239.06;4908683;29;20028;-61
2022/08/05 08:37:04;;;;;;;7.93;6.93;;;;;;;28.74;43.09;100238.09;4908712;29;20024;-62
2022/08/05 08:39:30;;;;;;;14.27;7.18;;;;;;;28.80;43.47;100239.38;4908367;29;20028;-61
2022/08/05 08:41:59;;;;;;;8.98;6.85;;;;;;;28.99;42.92;100248.38;4908433;29;20044;-61
2022/08/05 08:44:29;;;;;;;11.25;6.68;;;;;;;28.90;42.96;100210.06;4907429;29;20257;-62
2022/08/05 08:46:55;;;;;;;7.85;6.88;;;;;;;29.22;43.21;100249.81;4909049;29;20035;-61
2022/08/05 08:49:22;;;;;;;14.15;7.03;;;;;;;29.01;42.17;100214.44;4908114;29;20061;-61
2022/08/05 08:51:57;;;;;;;10.02;7.07;;;;;;;29.05;42.53;100202.50;4907405;29;20103;-61
2022/08/05 08:54:24;;;;;;;8.48;7.50;;;;;;;29.38;42.68;100238.59;4924368;29;20072;-61
2022/08/05 08:56:50;;;;;;;8.32;7.18;;;;;;;29.44;41.93;100239.88;4908459;29;20032;-61
2022/08/05 08:59:19;;;;;;;9.48;7.55;;;;;;;29.05;41.51;100245.19;4907251;29;20039;-62
2022/08/05 09:01:45;;;;;;;10.13;8.02;;;;;;;29.32;42.38;100241.84;4908525;29;20040;-61
2022/08/05 09:04:12;;;;;;;8.55;7.03;;;;;;;29.20;41.24;100246.47;4908009;29;20029;-61
2022/08/05 09:06:37;;;;;;;8.82;7.47;;;;;;;29.49;41.68;100234.09;4908271;29;20080;-61
2022/08/05 09:09:03;;;;;;;9.15;7.82;;;;;;;29.61;40.89;100230.28;4906860;29;20029;-61
2022/08/05 09:11:32;;;;;;;8.25;7.35;;;;;;;29.52;41.25;100199.13;4892108;29;20033;-61
2022/08/05 09:13:59;;;;;;;12.63;7.63;;;;;;;29.61;40.89;100224.97;4903828;29;20052;-61
2022/08/05 09:16:25;;;;;;;10.85;8.38;;;;;;;29.53;40.34;100224.81;4897930;29;20096;-62
2022/08/05 09:18:51;;;;;;;11.82;7.75;;;;;;;29.71;40.94;100233.78;4894824;29;20182;-61
2022/08/05 09:21:18;;;;;;;9.98;8.18;;;;;;;29.47;40.19;100222.72;4907958;29;20032;-62
2022/08/05 09:23:44;;;;;;;8.40;7.18;;;;;;;29.65;40.92;100229.03;4907862;29;20040;-61
2022/08/05 09:26:16;;;;;;;8.35;7.53;;;;;;;29.87;40.53;100211.00;4907812;29;20048;-61
2022/08/05 09:28:45;;;;;;;9.98;7.60;;;;;;;29.49;40.43;100220.75;4907705;29;20039;-62
2022/08/05 09:31:13;;;;;;;10.05;7.40;;;;;;;29.61;40.95;100216.94;4907830;29;20056;-61
2022/08/05 09:33:47;;;;;;;8.32;6.95;;;;;;;29.58;40.80;100171.84;4907887;29;20063;-62
2022/08/05 09:36:12;;;;;;;10.43;8.45;;;;;;;29.57;40.46;100210.22;4907755;29;20028;-61
2022/08/05 09:38:55;;;;;;;14.00;7.50;;;;;;;29.74;39.64;100212.16;4907792;29;20083;-60
2022/08/05 09:41:20;;;;;;;8.95;7.90;;;;;;;29.83;40.48;100205.13;4906818;29;20044;-61
2022/08/05 09:43:46;;;;;;;10.20;8.20;;;;;;;29.76;40.19;100190.66;4907691;29;20317;-61
2022/08/05 09:46:28;;;;;;;10.63;7.93;;;;;;;29.83;39.97;100198.91;4908469;29;20221;-61
2022/08/05 09:48:58;;;;;;;9.43;7.65;;;;;;;29.99;40.92;100179.66;4907815;29;20056;-61
2022/08/05 09:51:36;;;;;;;9.52;7.80;;;;;;;30.02;39.95;100192.69;4906723;29;20049;-61
2022/08/05 09:54:04;;;;;;;8.52;7.68;;;;;;;30.09;40.89;100191.94;4908626;29;20057;-62
2022/08/05 09:56:34;;;;;;;10.60;7.75;;;;;;;30.09;41.28;100186.63;4907987;29;20329;-61
2022/08/05 09:59:08;;;;;;;8.03;7.23;;;;;;;30.24;41.06;100204.81;4909832;29;20036;-61
2022/08/05 10:01:39;;;;;;;8.90;8.00;;;;;;;30.22;40.06;100194.28;4912840;29;20351;-61
2022/08/05 10:04:09;;;;;;;8.77;7.87;;;;;;;30.07;39.65;100151.19;4915789;29;20092;-61
2022/08/05 10:06:35;;;;;;;10.67;8.90;;;;;;;30.16;39.82;100188.69;4914491;29;20028;-61
2022/08/05 10:09:15;;;;;;;10.07;8.95;;;;;;;30.27;40.24;100184.00;4916887;29;20455;-61
2022/08/05 10:11:43;;;;;;;9.55;8.20;;;;;;;30.18;40.28;100181.38;4913756;29;20024;-62
2022/08/05 10:14:26;;;;;;;9.55;8.45;;;;;;;30.34;40.35;100192.25;4917712;29;20028;-61
2022/08/05 10:16:57;;;;;;;9.60;8.60;;;;;;;30.16;39.47;100188.69;4929038;29;20336;-63
2022/08/05 10:19:25;;;;;;;9.90;8.95;;;;;;;29.77;38.72;100174.47;4903617;29;20037;-61
2022/08/05 10:21:51;;;;;;;9.70;8.68;;;;;;;29.92;40.25;100187.41;4899381;29;20218;-61
2022/08/05 10:24:19;;;;;;;9.73;8.70;;;;;;;30.12;39.81;100177.47;4897323;29;20051;-61
2022/08/05 10:26:47;;;;;;;11.82;9.02;;;;;;;30.21;40.66;100189.09;4898781;29;20209;-62
2022/08/05 10:29:13;;;;;;;10.32;9.18;;;;;;;30.33;40.60;100182.56;4886137;29;20328;-61
2022/08/05 10:31:39;;;;;;;10.02;9.00;;;;;;;30.32;40.67;100180.03;4898015;29;20055;-61
2022/08/05 10:34:07;;;;;;;11.65;9.23;;;;;;;30.33;40.14;100179.91;4909050;29;20028;-62
2022/08/05 10:36:38;;;;;;;9.77;8.77;;;;;;;30.23;39.76;100182.63;4915110;29;20305;-60
2022/08/05 10:39:20;;;;;;;10.13;9.20;;;;;;;29.63;39.87;100180.28;4922053;29;20028;-61
2022/08/05 10:42:01;;;;;;;9.93;8.98;;;;;;;29.55;40.09;100191.66;4911686;29;20107;-62
2022/08/05 10:44:30;;;;;;;10.88;9.77;;;;;;;29.31;40.32;100140.59;4917904;29;20087;-61
2022/08/05 10:46:56;;;;;;;10.90;8.75;;;;;;;29.76;40.35;100174.63;4918019;29;20060;-62
2022/08/05 10:49:24;;;;;;;9.52;8.63;;;;;;;29.72;40.41;100136.69;4914888;29;20055;-60
2022/08/05 10:51:56;;;;;;;10.02;9.02;;;;;;;29.87;40.08;100136.22;4919356;29;20080;-61
2022/08/05 10:54:24;;;;;;;11.20;9.15;;;;;;;30.08;40.69;100136.00;4917440;29;20258;-61
2022/08/05 10:56:55;;;;;;;11.73;9.05;;;;;;;30.15;40.87;100130.91;4916845;29;20380;-60
2022/08/05 10:59:26;;;;;;;9.48;8.50;;;;;;;30.28;39.16;100161.63;4909384;29;20131;-61
2022/08/05 11:02:12;;;;;;;9.35;8.50;;;;;;;30.17;38.33;100164.50;4909050;29;20025;-61
2022/08/05 11:04:45;;;;;;;11.38;9.15;;;;;;;30.30;39.11;100164.16;4910144;29;20039;-61
2022/08/05 11:07:14;;;;;;;13.32;9.20;;;;;;;30.46;39.40;100168.88;4910223;29;20043;-62
2022/08/05 11:09:50;;;;;;;10.07;8.82;;;;;;;30.01;38.97;100121.56;4910062;29;20052;-62
2022/08/05 11:12:25;;;;;;;9.93;8.93;;;;;;;30.43;38.77;100164.66;4924115;29;20339;-60
2022/08/05 11:15:19;;;;;;;11.55;8.68;;;;;;;29.96;38.93;100130.03;4891500;29;20045;-64
2022/08/05 11:17:47;;;;;;;10.63;8.88;;;;;;;30.08;38.78;100171.56;4891567;29;20100;-62
2022/08/05 11:20:37;;;;;;;9.70;8.68;;;;;;;30.00;39.36;100167.94;4906701;29;20091;-62
2022/08/05 11:23:25;;;;;;;10.38;8.95;;;;;;;30.15;39.71;100158.47;4908515;29;20233;-61